Time;durP1;ratioP1;P1;durP2;ratioP2;P2;SDS_P1;SDS_P2;PMS_P1;PMS_P2;Temp;Humidity;BMP_temperature;BMP_pressure;BME280_temperature;BME280_humidity;BME280_pressure;Samples;Min_cycle;Max_cycle;Signal;HPM_P1;HPM_P2
2023/08/17 00:00:38;;;;;;;6.87;5.43;;;;;;;17.83;100.00;99848.47;5013354;28;20307;-56
2023/08/17 00:03:09;;;;;;;7.47;5.70;;;;;;;17.89;100.00;99846.34;5003708;28;20301;-57
2023/08/17 00:05:39;;;;;;;6.30;5.03;;;;;;;17.91;100.00;99843.63;5010410;28;20286;-56
2023/08/17 00:08:09;;;;;;;7.87;4.83;;;;;;;17.89;100.00;99853.41;5004702;28;20695;-56
2023/08/17 00:10:42;;;;;;;6.30;5.13;;;;;;;17.86;100.00;99843.03;5016518;28;20588;-56
2023/08/17 00:13:14;;;;;;;5.03;4.17;;;;;;;17.67;100.00;99806.97;5004156;28;20289;-55
2023/08/17 00:15:45;;;;;;;5.10;4.03;;;;;;;17.89;100.00;99821.69;5014552;28;20784;-56
2023/08/17 00:18:15;;;;;;;5.20;3.60;;;;;;;17.90;100.00;99812.84;5004472;28;20715;-56
2023/08/17 00:20:45;;;;;;;4.80;3.53;;;;;;;17.90;100.00;99807.56;5014186;28;20284;-55
2023/08/17 00:23:16;;;;;;;3.67;3.17;;;;;;;17.91;100.00;99814.56;5005170;28;20290;-55
2023/08/17 00:25:49;;;;;;;4.30;3.00;;;;;;;17.93;100.00;99794.19;5014737;28;20284;-55
2023/08/17 00:28:19;;;;;;;5.50;3.30;;;;;;;17.93;100.00;99796.81;5004274;28;20359;-55
2023/08/17 00:30:53;;;;;;;3.97;3.30;;;;;;;17.96;100.00;99799.28;5014268;28;20292;-54
2023/08/17 00:33:23;;;;;;;5.60;2.60;;;;;;;17.96;100.00;99795.81;5003566;28;20290;-54
2023/08/17 00:35:53;;;;;;;3.47;2.80;;;;;;;17.95;100.00;99794.97;5006666;28;20273;-55
2023/08/17 00:38:24;;;;;;;3.47;2.67;;;;;;;17.96;100.00;99795.81;5012713;28;20627;-53
2023/08/17 00:40:56;;;;;;;5.87;2.90;;;;;;;17.72;100.00;99750.38;4995876;28;20311;-53
2023/08/17 00:43:27;;;;;;;3.30;2.50;;;;;;;17.97;100.00;99784.28;5013629;28;20283;-56
2023/08/17 00:45:57;;;;;;;4.53;2.53;;;;;;;18.00;100.00;99792.91;5007922;28;20669;-55
2023/08/17 00:48:29;;;;;;;3.37;2.90;;;;;;;18.01;100.00;99793.75;5018108;28;20321;-53
2023/08/17 00:51:00;;;;;;;3.40;2.83;;;;;;;18.00;100.00;99777.06;5008633;28;20375;-57
2023/08/17 00:53:33;;;;;;;3.53;2.50;;;;;;;18.03;100.00;99782.16;5016690;28;20276;-55
2023/08/17 00:56:06;;;;;;;3.03;2.50;;;;;;;18.04;100.00;99775.09;5009331;28;20263;-56
2023/08/17 00:58:36;;;;;;;3.53;2.13;;;;;;;18.03;100.00;99768.94;5017793;28;20363;-54
2023/08/17 01:01:07;;;;;;;3.40;1.87;;;;;;;18.03;100.00;99766.31;5007382;28;20300;-54
2023/08/17 01:03:38;;;;;;;6.50;1.83;;;;;;;17.98;100.00;99773.63;5017307;28;20315;-52
2023/08/17 01:06:08;;;;;;;1.60;1.33;;;;;;;17.93;100.00;99765.09;5008923;28;20294;-54
2023/08/17 01:08:40;;;;;;;2.00;1.50;;;;;;;17.91;100.00;99737.06;5017488;28;20391;-54
2023/08/17 01:11:26;;;;;;;1.70;1.50;;;;;;;17.91;100.00;99737.91;5007382;28;20337;-55
2023/08/17 01:14:04;;;;;;;1.63;1.30;;;;;;;17.92;100.00;99731.66;5002597;28;20304;-55
2023/08/17 01:16:41;;;;;;;2.13;1.50;;;;;;;17.85;100.00;99722.41;5017143;28;20292;-57
2023/08/17 01:19:14;;;;;;;2.20;1.40;;;;;;;17.95;100.00;99720.94;5007657;28;20877;-54
2023/08/17 01:22:08;;;;;;;2.50;1.90;;;;;;;17.83;100.00;99696.03;5016554;28;20292;-56
2023/08/17 01:24:40;;;;;;;4.67;1.73;;;;;;;18.02;100.00;99703.81;5016475;28;20611;-54
2023/08/17 01:27:10;;;;;;;2.43;1.80;;;;;;;18.08;100.00;99700.81;5006831;28;20288;-55
2023/08/17 01:29:41;;;;;;;2.30;1.80;;;;;;;18.16;100.00;99696.88;5016360;28;20265;-54
2023/08/17 01:32:17;;;;;;;2.27;1.70;;;;;;;18.15;100.00;99697.84;5006945;28;20359;-57
2023/08/17 01:34:55;;;;;;;2.20;1.87;;;;;;;18.16;100.00;99699.53;5016255;28;20292;-56
2023/08/17 01:37:28;;;;;;;2.00;1.80;;;;;;;18.11;100.00;99695.34;5009298;28;20368;-52
2023/08/17 01:40:01;;;;;;;2.60;1.73;;;;;;;18.08;100.00;99695.53;5009065;28;20288;-55
2023/08/17 01:42:31;;;;;;;2.77;2.20;;;;;;;18.04;100.00;99693.97;5016012;28;20322;-52
2023/08/17 01:45:03;;;;;;;3.20;2.13;;;;;;;18.05;100.00;99694.84;5006246;28;20279;-56
2023/08/17 01:47:33;;;;;;;3.03;2.23;;;;;;;18.08;100.00;99698.16;5018043;28;20653;-56
2023/08/17 01:50:03;;;;;;;2.37;2.17;;;;;;;18.13;100.00;99682.03;5005225;28;20259;-54
2023/08/17 01:52:34;;;;;;;4.03;2.43;;;;;;;18.16;100.00;99686.31;5016206;28;20288;-55
2023/08/17 01:55:08;;;;;;;2.73;2.40;;;;;;;18.13;100.00;99671.47;5004910;28;20293;-54
2023/08/17 01:57:38;;;;;;;2.67;2.23;;;;;;;18.14;100.00;99677.59;5014957;28;20284;-57
2023/08/17 02:00:11;;;;;;;2.47;2.00;;;;;;;18.09;100.00;99670.78;5005328;28;20280;-54
2023/08/17 02:02:42;;;;;;;3.73;2.90;;;;;;;18.11;100.00;99668.06;5015321;28;20314;-56
2023/08/17 02:16:22;;;;;;;12.47;3.80;;;;;;;18.12;100.00;99648.59;4983772;28;20294;-52
2023/08/17 02:18:53;;;;;;;14.57;3.97;;;;;;;18.14;100.00;99656.44;5004413;28;20299;-56
2023/08/17 02:21:23;;;;;;;22.50;3.93;;;;;;;18.16;100.00;99644.00;5016855;28;20366;-57
2023/08/17 02:23:54;;;;;;;36.93;4.70;;;;;;;18.11;100.00;99637.19;5006876;28;20292;-55
2023/08/17 02:26:24;;;;;;;69.77;6.50;;;;;;;18.08;100.00;99632.06;5013937;28;20609;-54
2023/08/17 02:28:54;;;;;;;50.90;4.83;;;;;;;18.06;100.00;99627.81;5006544;28;20290;-55
2023/08/17 02:31:26;;;;;;;55.07;5.13;;;;;;;17.98;100.00;99617.69;5007349;28;20720;-55
2023/08/17 02:34:00;;;;;;;85.70;5.83;;;;;;;17.98;100.00;99620.31;5000438;28;20283;-56
2023/08/17 02:36:31;;;;;;;28.17;4.80;;;;;;;18.07;100.00;99600.41;5023855;28;20275;-54
2023/08/17 02:39:03;;;;;;;43.37;4.90;;;;;;;18.16;100.00;99601.69;5016710;28;20298;-56
2023/08/17 02:41:33;;;;;;;32.90;4.57;;;;;;;18.27;100.00;99593.97;5019853;28;20301;-57
2023/08/17 02:44:04;;;;;;;33.97;4.33;;;;;;;18.39;100.00;99598.53;5011801;28;20282;-56
2023/08/17 02:46:36;;;;;;;62.83;5.93;;;;;;;18.45;100.00;99595.53;5022526;28;20287;-57
2023/08/17 02:49:06;;;;;;;13.07;3.63;;;;;;;18.46;100.00;99585.81;5012825;28;20287;-57
2023/08/17 02:51:37;;;;;;;21.10;3.63;;;;;;;18.48;100.00;99592.72;5021545;28;20329;-58
2023/08/17 02:54:08;;;;;;;27.10;3.23;;;;;;;18.61;100.00;99592.81;5012587;28;20357;-57
2023/08/17 02:56:38;;;;;;;6.33;2.57;;;;;;;18.77;100.00;99587.50;5021834;28;20291;-56
2023/08/17 02:59:09;;;;;;;4.17;2.10;;;;;;;18.74;100.00;99588.47;5010900;28;20330;-58
2023/08/17 03:01:41;;;;;;;3.60;2.27;;;;;;;18.85;100.00;99579.94;5021345;28;20318;-58
2023/08/17 03:04:12;;;;;;;2.80;2.50;;;;;;;18.89;100.00;99586.72;5011227;28;20287;-58
2023/08/17 03:06:45;;;;;;;6.57;2.57;;;;;;;18.88;100.00;99577.09;5021021;28;20287;-57
2023/08/17 03:09:16;;;;;;;2.57;2.00;;;;;;;18.77;100.00;99561.03;5016922;28;20634;-59
2023/08/17 03:11:47;;;;;;;4.03;2.23;;;;;;;18.85;100.00;99560.56;5020795;28;20349;-58
2023/08/17 03:14:17;;;;;;;4.13;2.37;;;;;;;18.95;100.00;99562.53;4999223;28;20279;-58
2023/08/17 03:16:50;;;;;;;2.97;2.40;;;;;;;18.95;100.00;99557.25;5001919;28;20284;-58
2023/08/17 03:19:21;;;;;;;3.63;2.40;;;;;;;18.92;100.00;99548.63;4991727;28;20295;-58
2023/08/17 03:21:51;;;;;;;3.53;2.17;;;;;;;18.86;100.00;99549.88;5000432;28;20334;-56
2023/08/17 03:24:22;;;;;;;3.37;2.37;;;;;;;18.86;100.00;99549.88;5011294;28;20306;-57
2023/08/17 03:27:11;;;;;;;3.83;2.47;;;;;;;18.80;100.00;99555.56;5009437;28;20626;-57
2023/08/17 03:29:41;;;;;;;3.37;1.60;;;;;;;18.71;100.00;99550.78;5020213;28;20291;-58
2023/08/17 03:32:13;;;;;;;15.63;2.33;;;;;;;18.61;100.00;99547.00;5010574;28;21882;-56
2023/08/17 03:34:47;;;;;;;5.73;2.10;;;;;;;18.47;100.00;99553.13;5021256;28;20737;-56
2023/08/17 03:37:18;;;;;;;2.73;1.83;;;;;;;18.34;100.00;99553.00;5011184;28;20294;-59
2023/08/17 03:39:48;;;;;;;2.10;1.90;;;;;;;18.31;100.00;99538.16;5020836;28;20834;-57
2023/08/17 03:42:19;;;;;;;2.20;1.73;;;;;;;18.31;100.00;99543.47;5010492;28;20818;-56
2023/08/17 03:44:50;;;;;;;18.73;2.10;;;;;;;18.31;100.00;99532.03;5020909;28;20290;-57
2023/08/17 03:47:22;;;;;;;2.30;1.73;;;;;;;18.28;100.00;99532.22;5002942;28;20303;-58
2023/08/17 03:49:54;;;;;;;6.03;1.90;;;;;;;18.24;100.00;99535.97;5016894;28;20280;-56
2023/08/17 03:52:24;;;;;;;13.37;1.43;;;;;;;18.21;100.00;99536.16;5020272;28;20298;-57
2023/08/17 03:54:55;;;;;;;11.83;1.87;;;;;;;18.19;100.00;99543.34;5010112;28;20323;-58
2023/08/17 03:57:25;;;;;;;2.13;1.60;;;;;;;18.14;100.00;99529.53;5018803;28;20293;-57
2023/08/17 03:59:56;;;;;;;9.73;1.30;;;;;;;18.15;100.00;99525.97;5011473;28;20275;-59
2023/08/17 04:02:28;;;;;;;53.13;2.50;;;;;;;18.13;100.00;99523.41;5018756;28;20267;-57
2023/08/17 04:04:59;;;;;;;45.63;3.03;;;;;;;18.13;100.00;99527.84;5011093;28;20368;-58
2023/08/17 04:07:29;;;;;;;3.20;1.60;;;;;;;18.12;100.00;99521.69;5020734;28;20340;-58
2023/08/17 04:09:59;;;;;;;2.50;1.57;;;;;;;18.18;100.00;99520.50;5010967;28;20469;-57
2023/08/17 04:12:30;;;;;;;6.70;1.50;;;;;;;18.13;100.00;99512.84;5020416;28;20346;-58
2023/08/17 04:15:00;;;;;;;2.10;1.53;;;;;;;18.16;100.00;99514.44;5010687;28;20287;-58
2023/08/17 04:17:32;;;;;;;4.73;1.40;;;;;;;18.13;100.00;99512.00;5020393;28;20283;-58
2023/08/17 04:20:04;;;;;;;1.93;1.00;;;;;;;18.03;100.00;99512.53;5013628;28;20292;-55
2023/08/17 04:22:34;;;;;;;4.87;1.10;;;;;;;17.97;100.00;99501.47;5023168;28;20302;-57
2023/08/17 04:25:05;;;;;;;7.33;1.33;;;;;;;17.94;100.00;99499.00;5009746;28;20283;-57
2023/08/17 04:27:36;;;;;;;1.40;1.20;;;;;;;17.95;100.00;99493.63;5023980;28;20279;-57
2023/08/17 04:30:07;;;;;;;1.20;1.10;;;;;;;18.01;100.00;99487.97;5013954;28;20295;-58
2023/08/17 04:32:39;;;;;;;8.47;1.43;;;;;;;18.00;100.00;99475.72;5024031;28;20647;-58
2023/08/17 04:35:11;;;;;;;5.83;1.20;;;;;;;18.03;100.00;99464.94;5014367;28;20275;-58
2023/08/17 04:37:41;;;;;;;9.40;1.40;;;;;;;18.11;100.00;99473.25;5025111;28;20291;-56
2023/08/17 04:40:13;;;;;;;17.77;2.03;;;;;;;18.08;100.00;99462.88;5015015;28;22842;-59
2023/08/17 04:42:44;;;;;;;5.53;1.00;;;;;;;18.12;100.00;99468.81;5007127;28;20300;-56
2023/08/17 04:45:14;;;;;;;11.70;1.43;;;;;;;18.10;100.00;99455.72;4993521;28;20284;-58
2023/08/17 04:47:46;;;;;;;11.30;1.73;;;;;;;18.04;100.00;99466.63;5019332;28;20303;-58
2023/08/17 04:50:17;;;;;;;9.03;1.60;;;;;;;18.03;100.00;99464.09;5012813;28;20283;-57
2023/08/17 04:52:47;;;;;;;23.57;2.00;;;;;;;18.05;100.00;99452.50;5009914;28;20318;-58
2023/08/17 04:55:17;;;;;;;48.40;3.17;;;;;;;18.04;100.00;99450.78;5014102;28;20749;-59
2023/08/17 04:57:48;;;;;;;37.70;2.37;;;;;;;17.99;100.00;99442.28;5023573;28;20267;-59
2023/08/17 05:00:24;;;;;;;19.33;2.20;;;;;;;17.99;100.00;99442.28;5012971;28;20610;-58
2023/08/17 05:02:56;;;;;;;37.40;2.37;;;;;;;17.93;100.00;99421.50;5013379;28;20333;-58
2023/08/17 05:05:27;;;;;;;9.27;1.90;;;;;;;17.91;100.00;99417.25;5021523;28;20318;-58
2023/08/17 05:07:57;;;;;;;25.77;2.77;;;;;;;17.79;100.00;99398.50;4995318;28;20304;-59
2023/08/17 05:10:28;;;;;;;50.03;3.13;;;;;;;17.87;100.00;99416.56;5003489;28;20422;-58
2023/08/17 05:12:58;;;;;;;11.20;2.03;;;;;;;17.87;100.00;99422.72;5001749;28;20599;-57
2023/08/17 05:15:29;;;;;;;6.10;1.90;;;;;;;17.74;100.00;99405.84;5023663;28;20559;-58
2023/08/17 05:18:01;;;;;;;54.17;3.57;;;;;;;17.82;100.00;99421.28;5004378;28;20693;-58
2023/08/17 05:20:31;;;;;;;3.97;1.57;;;;;;;17.77;100.00;99428.59;5017311;28;20291;-58
2023/08/17 05:23:02;;;;;;;18.53;2.20;;;;;;;17.73;100.00;99424.47;5013456;28;20302;-57
2023/08/17 05:25:33;;;;;;;44.60;3.13;;;;;;;17.69;100.00;99414.06;5009297;28;20320;-58
2023/08/17 05:28:03;;;;;;;25.60;2.47;;;;;;;17.68;100.00;99412.38;4994232;28;20310;-58
2023/08/17 05:30:34;;;;;;;4.83;2.13;;;;;;;17.63;100.00;99398.59;5004046;28;20279;-58
2023/08/17 05:33:07;;;;;;;29.93;3.10;;;;;;;17.74;100.00;99399.72;4992838;28;20324;-58
2023/08/17 05:35:37;;;;;;;71.43;3.53;;;;;;;17.71;100.00;99389.34;5004369;28;20299;-58
2023/08/17 05:38:08;;;;;;;46.10;2.80;;;;;;;17.71;100.00;99389.34;4994935;28;20638;-59
2023/08/17 05:40:38;;;;;;;13.37;2.30;;;;;;;17.60;100.00;99382.91;5004365;28;20299;-58
2023/08/17 05:43:09;;;;;;;22.23;2.20;;;;;;;17.69;100.00;99385.00;4994121;28;20727;-58
2023/08/17 05:45:40;;;;;;;11.10;1.80;;;;;;;17.69;100.00;99400.84;5004304;28;20375;-59
2023/08/17 05:48:13;;;;;;;8.07;1.80;;;;;;;17.65;100.00;99395.88;4993695;28;20284;-58
2023/08/17 05:50:44;;;;;;;12.90;1.53;;;;;;;17.61;100.00;99395.19;5001846;28;20845;-59
2023/08/17 05:53:15;;;;;;;19.97;2.40;;;;;;;17.49;100.00;99374.75;4993969;28;20315;-59
2023/08/17 05:55:45;;;;;;;14.47;1.83;;;;;;;17.58;100.00;99381.31;5003286;28;20380;-57
2023/08/17 05:58:16;;;;;;;15.03;2.00;;;;;;;17.60;100.00;99376.78;4992912;28;20378;-57
2023/08/17 06:00:46;;;;;;;13.23;1.97;;;;;;;17.61;100.00;99366.13;5003322;28;20944;-54
2023/08/17 06:03:18;;;;;;;36.97;2.97;;;;;;;17.73;100.00;99371.63;4993269;28;20299;-57
2023/08/17 06:05:49;;;;;;;27.20;2.37;;;;;;;17.71;100.00;99362.94;5002574;28;20652;-58
2023/08/17 06:08:19;;;;;;;6.50;2.40;;;;;;;17.73;100.00;99372.47;5012183;28;20311;-58
2023/08/17 06:10:50;;;;;;;8.93;1.97;;;;;;;17.76;100.00;99376.72;5022453;28;20279;-58
2023/08/17 06:13:21;;;;;;;20.80;2.00;;;;;;;17.69;100.00;99379.72;5011897;28;20417;-58
2023/08/17 06:15:52;;;;;;;30.97;2.80;;;;;;;17.62;100.00;99367.84;5021571;28;20377;-59
2023/08/17 06:18:29;;;;;;;71.70;4.10;;;;;;;17.56;100.00;99368.19;4992142;28;20608;-58
2023/08/17 06:21:00;;;;;;;13.17;2.20;;;;;;;17.50;100.00;99363.28;4992694;28;20296;-59
2023/08/17 06:23:30;;;;;;;21.33;2.60;;;;;;;17.52;100.00;99364.00;5002979;28;20393;-58
2023/08/17 06:26:01;;;;;;;34.13;2.80;;;;;;;17.44;100.00;99360.97;4992416;28;20320;-58
2023/08/17 06:28:31;;;;;;;20.47;2.67;;;;;;;17.46;100.00;99364.38;5002857;28;20380;-57
2023/08/17 06:31:02;;;;;;;52.97;3.60;;;;;;;17.47;100.00;99366.06;4993561;28;20276;-57
2023/08/17 06:33:34;;;;;;;17.17;1.93;;;;;;;17.41;100.00;99350.63;5022000;28;20295;-57
2023/08/17 06:36:04;;;;;;;38.93;2.70;;;;;;;17.34;100.00;99349.25;5012407;28;20287;-58
2023/08/17 06:38:35;;;;;;;7.30;1.73;;;;;;;17.32;100.00;99353.78;5022658;28;20334;-59
2023/08/17 06:41:05;;;;;;;24.87;2.67;;;;;;;17.27;100.00;99348.75;5012557;28;20341;-59
2023/08/17 06:43:36;;;;;;;22.63;2.23;;;;;;;17.23;100.00;99337.56;5014288;28;20276;-57
2023/08/17 06:46:06;;;;;;;47.27;4.30;;;;;;;17.08;100.00;99325.25;5000492;28;20286;-57
2023/08/17 06:48:38;;;;;;;52.60;2.83;;;;;;;17.12;100.00;99342.59;5006257;28;20272;-56
2023/08/17 06:51:08;;;;;;;48.67;3.40;;;;;;;16.97;100.00;99325.00;5006010;28;20742;-56
2023/08/17 06:53:39;;;;;;;59.57;3.47;;;;;;;17.12;100.00;99339.94;5015793;28;20275;-57
2023/08/17 06:56:11;;;;;;;73.97;4.10;;;;;;;17.10;100.00;99341.84;5011062;28;20796;-57
2023/08/17 06:58:42;;;;;;;100.10;6.03;;;;;;;17.07;100.00;99346.44;5019482;28;20675;-56
2023/08/17 07:01:14;;;;;;;26.70;2.97;;;;;;;17.07;100.00;99344.66;5010713;28;20358;-58
2023/08/17 07:03:46;;;;;;;82.80;5.23;;;;;;;17.04;100.00;99336.91;5021526;28;20712;-58
2023/08/17 07:06:17;;;;;;;59.53;4.00;;;;;;;17.03;100.00;99332.59;5011291;28;20895;-57
2023/08/17 07:08:48;;;;;;;44.00;2.80;;;;;;;17.01;100.00;99334.47;5014143;28;20767;-57
2023/08/17 07:11:19;;;;;;;33.87;3.00;;;;;;;17.03;100.00;99335.22;5009744;28;20279;-57
2023/08/17 07:13:49;;;;;;;18.60;2.33;;;;;;;17.04;100.00;99331.63;5021902;28;20283;-57
2023/08/17 07:16:20;;;;;;;24.57;2.20;;;;;;;17.01;100.00;99321.25;5010838;28;20271;-58
2023/08/17 07:18:52;;;;;;;45.20;2.93;;;;;;;17.01;100.00;99315.97;5021217;28;20283;-57
2023/08/17 07:21:22;;;;;;;28.97;2.53;;;;;;;16.99;100.00;99317.84;4999183;28;20276;-56
2023/08/17 07:23:55;;;;;;;8.97;2.20;;;;;;;16.98;100.00;99313.53;4996932;28;20299;-56
2023/08/17 07:26:26;;;;;;;39.60;3.47;;;;;;;16.95;100.00;99305.81;5001437;28;20597;-56
2023/08/17 07:28:56;;;;;;;26.93;2.80;;;;;;;16.96;100.00;99313.59;4991949;28;20379;-57
2023/08/17 07:31:27;;;;;;;17.07;2.50;;;;;;;16.95;100.00;99306.66;5002097;28;20292;-58
2023/08/17 07:33:59;;;;;;;50.40;3.90;;;;;;;16.93;100.00;99299.75;4991818;28;20276;-57
2023/08/17 07:36:29;;;;;;;16.37;2.30;;;;;;;16.93;100.00;99302.41;5001360;28;20541;-58
2023/08/17 07:39:02;;;;;;;32.13;3.40;;;;;;;16.94;100.00;99298.81;5000214;28;20383;-58
2023/08/17 07:41:32;;;;;;;17.37;2.60;;;;;;;16.38;100.00;99191.19;5020700;28;20725;-57
2023/08/17 07:44:03;;;;;;;6.97;2.30;;;;;;;16.93;100.00;99276.84;5009887;28;20310;-55
2023/08/17 07:46:34;;;;;;;6.60;1.67;;;;;;;16.92;100.00;99274.28;5021182;28;20409;-57
2023/08/17 07:49:06;;;;;;;3.00;1.60;;;;;;;16.89;100.00;99264.75;5010212;28;20780;-56
2023/08/17 07:51:51;;;;;;;2.97;1.53;;;;;;;16.89;100.00;99253.38;5013347;28;20292;-58
2023/08/17 07:54:21;;;;;;;2.37;1.20;;;;;;;16.89;100.00;99253.38;4992281;28;20659;-58
2023/08/17 07:56:52;;;;;;;2.57;1.30;;;;;;;16.89;100.00;99248.09;5004962;28;20671;-57
2023/08/17 07:59:24;;;;;;;2.43;1.20;;;;;;;16.90;100.00;99252.41;5015124;28;20267;-57
2023/08/17 08:01:55;;;;;;;1.10;1.00;;;;;;;16.87;100.00;99248.16;5015205;28;20292;-56
2023/08/17 08:04:27;;;;;;;1.47;0.93;;;;;;;16.87;100.00;99255.25;5025660;28;20665;-58
2023/08/17 08:06:59;;;;;;;3.17;1.13;;;;;;;16.86;100.00;99245.63;5014326;28;20357;-59
2023/08/17 08:09:29;;;;;;;1.23;1.00;;;;;;;16.85;100.00;99236.88;5024353;28;20318;-57
2023/08/17 08:12:00;;;;;;;1.67;0.90;;;;;;;16.83;100.00;99235.28;5014780;28;20370;-56
2023/08/17 08:14:30;;;;;;;1.97;0.83;;;;;;;16.81;100.00;99236.19;5024915;28;20804;-54
2023/08/17 08:17:01;;;;;;;1.17;1.00;;;;;;;16.79;100.00;99227.50;5006995;28;20794;-54
2023/08/17 08:19:33;;;;;;;1.17;1.00;;;;;;;16.80;100.00;99223.09;5021645;28;20375;-58
2023/08/17 08:22:03;;;;;;;1.80;1.10;;;;;;;16.82;100.00;99231.75;5013310;28;20298;-55
2023/08/17 08:24:35;;;;;;;1.30;1.00;;;;;;;16.81;100.00;99212.44;5010625;28;20391;-57
2023/08/17 08:27:08;;;;;;;3.87;0.80;;;;;;;16.80;100.00;99223.94;4994780;28;20638;-58
2023/08/17 08:29:39;;;;;;;2.67;0.83;;;;;;;16.81;100.00;99230.91;5005158;28;20284;-57
2023/08/17 08:32:10;;;;;;;4.20;1.00;;;;;;;16.81;100.00;99220.38;4994665;28;20379;-57
2023/08/17 08:34:42;;;;;;;1.47;0.70;;;;;;;16.81;100.00;99209.81;5011899;28;20279;-57
2023/08/17 08:37:13;;;;;;;4.20;0.73;;;;;;;16.88;100.00;99220.00;5012873;28;20344;-55
2023/08/17 08:39:54;;;;;;;3.23;0.60;;;;;;;16.74;100.00;99192.59;5024773;28;20295;-57
2023/08/17 08:42:27;;;;;;;1.67;0.50;;;;;;;16.89;100.00;99205.88;5013617;28;20809;-57
2023/08/17 08:44:58;;;;;;;0.60;0.60;;;;;;;16.85;100.00;99207.84;5014613;28;20294;-57
2023/08/17 08:47:30;;;;;;;1.57;0.50;;;;;;;16.86;100.00;99212.19;5024484;28;20276;-57
2023/08/17 08:50:04;;;;;;;0.77;0.67;;;;;;;16.79;100.00;99206.41;5013941;28;20746;-57
2023/08/17 08:52:44;;;;;;;2.20;0.70;;;;;;;16.88;100.00;99220.00;5024958;28;20353;-57
2023/08/17 08:55:19;;;;;;;0.80;0.70;;;;;;;16.90;100.00;99210.19;5014462;28;20307;-57
2023/08/17 08:57:54;;;;;;;2.47;0.73;;;;;;;16.88;100.00;99198.91;5022826;28;20742;-56
2023/08/17 09:00:36;;;;;;;3.63;0.80;;;;;;;16.88;100.00;99185.72;5013603;28;20341;-57
2023/08/17 09:03:13;;;;;;;3.13;0.73;;;;;;;16.61;100.00;99154.72;5013622;28;20750;-56
2023/08/17 09:06:13;;;;;;;0.87;0.80;;;;;;;16.84;100.00;99202.66;5022989;28;20810;-57
2023/08/17 09:08:46;;;;;;;1.23;0.70;;;;;;;16.86;100.00;99211.34;5008379;28;20288;-56
2023/08/17 09:11:23;;;;;;;0.73;0.70;;;;;;;16.87;100.00;99213.03;5013094;28;20298;-57
2023/08/17 09:13:57;;;;;;;0.53;0.40;;;;;;;16.59;100.00;99175.88;5014672;28;20636;-56
2023/08/17 09:16:30;;;;;;;0.40;0.40;;;;;;;16.83;100.00;99211.53;5023541;28;20323;-55
2023/08/17 09:19:02;;;;;;;1.73;0.30;;;;;;;16.52;100.00;99171.06;5013166;28;20785;-55
2023/08/17 09:21:36;;;;;;;1.40;0.40;;;;;;;16.80;100.00;99223.94;5023909;28;20288;-54
2023/08/17 09:24:10;;;;;;;1.47;0.30;;;;;;;16.57;100.00;99185.72;5014196;28;20341;-55
2023/08/17 09:26:41;;;;;;;1.30;0.33;;;;;;;16.77;100.00;99216.19;5022682;28;20376;-56
2023/08/17 09:29:20;;;;;;;0.30;0.30;;;;;;;16.74;100.00;99203.16;5013657;28;20298;-57
2023/08/17 09:31:52;;;;;;;0.40;0.30;;;;;;;16.75;100.00;99204.88;5024320;28;20276;-57
2023/08/17 09:34:24;;;;;;;2.00;0.40;;;;;;;16.80;100.00;99231.88;5013087;28;20056;-54
2023/08/17 09:36:58;;;;;;;0.60;0.50;;;;;;;16.83;100.00;99238.75;5013212;28;20294;-56
2023/08/17 09:39:33;;;;;;;1.50;0.37;;;;;;;16.54;100.00;99185.84;5022986;28;20284;-56
2023/08/17 09:42:05;;;;;;;0.83;0.30;;;;;;;16.92;100.00;99239.97;5013400;28;20283;-56
2023/08/17 09:44:37;;;;;;;0.40;0.30;;;;;;;16.93;100.00;99254.91;5023163;28;20288;-56
2023/08/17 09:47:09;;;;;;;0.30;0.30;;;;;;;16.96;100.00;99265.25;5013240;28;20777;-56
2023/08/17 09:49:43;;;;;;;0.20;0.20;;;;;;;16.94;100.00;99267.13;5023606;28;20327;-56
2023/08/17 09:52:16;;;;;;;0.20;0.20;;;;;;;16.96;100.00;99276.66;5013447;28;20291;-57
2023/08/17 09:54:49;;;;;;;0.20;0.20;;;;;;;16.93;100.00;99257.53;5023308;28;20280;-55
2023/08/17 09:57:21;;;;;;;0.40;0.30;;;;;;;16.91;100.00;99251.50;4993161;28;20275;-55
2023/08/17 09:59:54;;;;;;;0.50;0.20;;;;;;;16.94;100.00;99252.16;5010981;28;20657;-56
2023/08/17 10:02:26;;;;;;;0.30;0.20;;;;;;;16.53;100.00;99172.78;5010404;28;20295;-56
2023/08/17 10:05:00;;;;;;;0.20;0.20;;;;;;;16.79;100.00;99211.69;5012209;28;20290;-55
2023/08/17 10:07:35;;;;;;;0.30;0.30;;;;;;;16.88;100.00;99217.38;5023312;28;20279;-56
2023/08/17 10:10:08;;;;;;;0.20;0.20;;;;;;;16.86;100.00;99232.44;5013032;28;20292;-55
2023/08/17 10:12:46;;;;;;;0.20;0.20;;;;;;;16.65;100.00;99198.44;5022844;28;20788;-56
2023/08/17 10:15:21;;;;;;;1.47;0.20;;;;;;;16.78;100.00;99210.00;5012898;28;20272;-57
2023/08/17 10:18:00;;;;;;;0.20;0.20;;;;;;;16.61;100.00;99186.34;5021438;28;20272;-56
2023/08/17 10:20:35;;;;;;;0.20;0.20;;;;;;;16.76;100.00;99211.84;5011808;28;20275;-58
2023/08/17 10:23:16;;;;;;;3.43;0.33;;;;;;;16.80;100.00;99223.94;5010949;28;20349;-57
2023/08/17 10:25:49;;;;;;;1.40;0.50;;;;;;;16.88;100.00;99226.13;5002796;28;20300;-54
2023/08/17 10:28:22;;;;;;;3.03;0.40;;;;;;;16.93;100.00;99223.22;5012404;28;20291;-57
2023/08/17 10:30:54;;;;;;;1.80;0.50;;;;;;;16.81;100.00;99204.53;5004167;28;20276;-56
2023/08/17 10:33:26;;;;;;;4.23;0.40;;;;;;;16.83;100.00;99214.16;5014885;28;21188;-56
2023/08/17 10:35:59;;;;;;;2.00;0.30;;;;;;;16.78;100.00;99202.09;5012853;28;20288;-55
2023/08/17 10:38:32;;;;;;;2.67;0.40;;;;;;;16.75;100.00;99215.44;5023248;28;20276;-56
2023/08/17 10:41:14;;;;;;;9.40;0.50;;;;;;;16.77;100.00;99213.56;5012326;28;20291;-57
2023/08/17 10:43:57;;;;;;;2.80;0.40;;;;;;;16.45;100.00;99161.81;5022876;28;20284;-56
2023/08/17 10:46:36;;;;;;;0.50;0.40;;;;;;;16.72;100.00;99205.03;4991546;28;20295;-57
2023/08/17 10:49:25;;;;;;;2.20;0.30;;;;;;;16.69;100.00;99205.22;5010947;28;20276;-56
2023/08/17 10:52:05;;;;;;;1.60;0.30;;;;;;;16.70;100.00;99212.22;5012402;28;20786;-56
2023/08/17 10:54:43;;;;;;;2.13;0.40;;;;;;;16.70;100.00;99196.38;5022220;28;20384;-56
2023/08/17 10:57:31;;;;;;;2.17;0.27;;;;;;;16.70;100.00;99211.34;5011799;28;20287;-49
2023/08/17 11:00:19;;;;;;;1.83;0.20;;;;;;;16.64;100.00;99190.59;5010810;28;20400;-57
2023/08/17 11:02:58;;;;;;;0.85;0.30;;;;;;;16.63;100.00;99184.50;5020123;28;20603;-53
2023/08/17 11:05:40;;;;;;;0.40;0.30;;;;;;;16.65;100.00;99182.63;4995930;28;20041;-53
2023/08/17 11:08:15;;;;;;;0.20;0.20;;;;;;;16.23;100.00;99118.25;4996017;28;20955;-53
2023/08/17 11:11:00;;;;;;;0.30;0.30;;;;;;;16.46;100.00;99159.09;5006198;28;20354;-53
2023/08/17 11:13:32;;;;;;;0.27;0.27;;;;;;;16.62;100.00;99177.50;4995643;28;20745;-53
2023/08/17 11:16:05;;;;;;;2.33;0.30;;;;;;;16.61;100.00;99174.03;4995479;28;20763;-54
2023/08/17 11:18:37;;;;;;;0.30;0.30;;;;;;;16.59;100.00;99177.69;5005481;28;20436;-57
2023/08/17 11:21:14;;;;;;;1.70;0.30;;;;;;;16.60;100.00;99167.06;4996171;28;20296;-54
2023/08/17 11:23:59;;;;;;;;;;;;;;;16.60;100.00;99163.56;4993104;28;20276;-54
2023/08/17 11:26:33;;;;;;;2.13;0.30;;;;;;;16.51;100.00;99153.56;5008691;28;19925;-50
2023/08/17 11:29:06;;;;;;;2.60;0.40;;;;;;;16.56;100.00;99154.13;5002188;28;20283;-53
2023/08/17 11:31:37;;;;;;;1.03;0.30;;;;;;;16.51;100.00;99149.13;5025730;28;20287;-55
2023/08/17 11:34:09;;;;;;;0.37;0.37;;;;;;;16.57;100.00;99154.06;5008753;28;20300;-55
2023/08/17 11:36:41;;;;;;;3.13;0.50;;;;;;;16.50;100.00;99141.28;5013999;28;20279;-53
2023/08/17 11:39:13;;;;;;;2.37;0.70;;;;;;;16.59;100.00;99149.50;4996828;28;20584;-56
2023/08/17 11:41:47;;;;;;;1.17;0.70;;;;;;;16.58;100.00;99139.06;5007680;28;20288;-55
2023/08/17 11:44:21;;;;;;;0.53;0.53;;;;;;;16.56;100.00;99125.13;4999169;28;20294;-54
2023/08/17 11:46:55;;;;;;;1.13;0.60;;;;;;;16.48;100.00;99106.28;5012344;28;20287;-53
2023/08/17 11:49:27;;;;;;;6.43;0.50;;;;;;;16.54;100.00;99122.56;5014076;28;20292;-53
2023/08/17 11:51:58;;;;;;;0.40;0.40;;;;;;;16.53;100.00;99125.31;5005256;28;20272;-54
2023/08/17 11:54:30;;;;;;;1.13;0.30;;;;;;;16.42;100.00;99104.00;5015765;28;20300;-50
2023/08/17 11:57:04;;;;;;;1.03;0.40;;;;;;;16.53;100.00;99120.03;5005563;28;20395;-56